Celina, Ohio
Current Conditions -  °F | °C
As of 12:34 PM on Thursday 23 Oct 2014 (Local Time) from KAXV Reporting Station
Haze Haze  
Wind Chill: 52°   Ceiling: Unl
Heat Index: 52°   Visibility: 5mi
Dew Point: 41°   Wind: 0mph
Humidity: 67%   Direction: NA
Pressure: 30.25"   Gusts: NA
Location:  40.55°N, 84.57°W
Report Text: KAXV 231634Z AUTO 00000KT 5SM HZ CLR 11/05 A3025 RMK AO2
Loading
Personal Weather Stations






























Interactive Weather Map
Tropical Storm Tracking
New forecast layout! Learn more

10-Day Weather Forecast

Advertisements
Track Severe Weather on mobile